Time,TemperatureF,DewpointF,PressureIn,WindDirection,WindDirectionDegrees,WindSpeedMPH,WindSpeedGustMPH,Humidity,HourlyPrecipIn,Conditions,Clouds,dailyrainin,SolarRadiationWatts/m^2,SoftwareType,DateUTC
2013-03-24 03:00:00,25.0,20.0,-100.00,NW,315,0.0,-999.0,80,-99.99,,,-99.99,0.000000,,2013-03-24 07:00:00,
2013-03-24 03:42:00,25.0,20.0,-100.00,NW,315,0.0,-999.0,80,-99.99,,,-99.99,0.000000,,2013-03-24 07:42:00,
2013-03-24 03:52:00,25.0,20.0,-100.00,NW,315,0.0,-999.0,80,-99.99,,,-99.99,0.000000,,2013-03-24 07:52:00,
2013-03-24 05:00:00,24.0,19.0,-100.00,West,270,0.0,-999.0,81,-99.99,,,-99.99,0.000000,,2013-03-24 09:00:00,
2013-03-24 05:43:00,24.0,19.0,-100.00,West,270,0.0,-999.0,81,-99.99,,,-99.99,0.000000,,2013-03-24 09:43:00,
2013-03-24 05:52:00,24.0,19.0,-100.00,West,270,0.0,-999.0,81,-99.99,,,-99.99,0.000000,,2013-03-24 09:52:00,
2013-03-24 06:00:00,25.0,21.0,-100.00,NW,315,0.0,-999.0,83,-99.99,,,-99.99,0.000000,,2013-03-24 10:00:00,
2013-03-24 06:42:00,25.0,21.0,-100.00,NW,315,0.0,-999.0,83,-99.99,,,-99.99,0.000000,,2013-03-24 10:42:00,
2013-03-24 06:52:00,25.0,21.0,-100.00,NW,315,0.0,-999.0,83,-99.99,,,-99.99,0.000000,,2013-03-24 10:52:00,
2013-03-24 07:00:00,25.0,21.0,-100.00,WNW,292,0.0,-999.0,83,-99.99,,,-99.99,0.000000,,2013-03-24 11:00:00,
2013-03-24 07:42:00,25.0,21.0,-100.00,WNW,292,0.0,-999.0,83,-99.99,,,-99.99,0.000000,,2013-03-24 11:42:00,
2013-03-24 07:52:00,25.0,21.0,-100.00,WNW,292,0.0,-999.0,83,-99.99,,,-99.99,0.000000,,2013-03-24 11:52:00,
2013-03-24 08:00:00,25.0,21.0,-100.00,SSE,157,0.0,-999.0,84,-99.99,,,-99.99,2.320000,,2013-03-24 12:00:00,
2013-03-24 08:42:00,25.0,21.0,-100.00,SSE,157,0.0,-999.0,84,-99.99,,,-99.99,2.320000,,2013-03-24 12:42:00,
2013-03-24 08:52:00,25.0,21.0,-100.00,SSE,157,0.0,-999.0,84,-99.99,,,-99.99,2.320000,,2013-03-24 12:52:00,
2013-03-24 09:00:00,25.0,21.0,-100.00,ESE,112,0.0,-999.0,84,-99.99,,,-99.99,31.320000,,2013-03-24 13:00:00,
2013-03-24 09:43:00,25.0,21.0,-100.00,ESE,112,0.0,-999.0,84,-99.99,,,-99.99,31.320000,,2013-03-24 13:43:00,
2013-03-24 09:52:00,25.0,21.0,-100.00,ESE,112,0.0,-999.0,84,-99.99,,,-99.99,31.320000,,2013-03-24 13:52:00,
2013-03-24 10:00:00,27.0,22.0,-100.00,ENE,67,0.0,-999.0,81,-99.99,,,-99.99,91.639999,,2013-03-24 14:00:00,
2013-03-24 10:43:00,27.0,22.0,-100.00,ENE,67,0.0,-999.0,81,-99.99,,,-99.99,91.639999,,2013-03-24 14:43:00,
2013-03-24 10:52:00,27.0,22.0,-100.00,ENE,67,0.0,-999.0,81,-99.99,,,-99.99,91.639999,,2013-03-24 14:52:00,
2013-03-24 12:00:00,30.0,22.0,-100.00,East,90,2.0,-999.0,71,-99.99,,,-99.99,176.320007,,2013-03-24 16:00:00,
2013-03-24 12:43:00,30.0,22.0,-100.00,East,90,2.0,-999.0,71,-99.99,,,-99.99,176.320007,,2013-03-24 16:43:00,
2013-03-24 12:52:00,30.0,22.0,-100.00,East,90,2.0,-999.0,71,-99.99,,,-99.99,176.320007,,2013-03-24 16:52:00,
2013-03-24 13:00:00,29.0,21.0,-100.00,ENE,67,2.0,-999.0,71,-99.99,,,-99.99,213.440002,,2013-03-24 17:00:00,
2013-03-24 13:43:00,29.0,21.0,-100.00,ENE,67,2.0,-999.0,71,-99.99,,,-99.99,213.440002,,2013-03-24 17:43:00,
2013-03-24 13:53:00,29.0,21.0,-100.00,ENE,67,2.0,-999.0,71,-99.99,,,-99.99,213.440002,,2013-03-24 17:53:00,
2013-03-24 14:00:00,30.0,21.0,-100.00,ENE,67,3.0,-999.0,69,-99.99,,,-99.99,292.320007,,2013-03-24 18:00:00,
2013-03-24 14:43:00,30.0,21.0,-100.00,ENE,67,3.0,-999.0,69,-99.99,,,-99.99,292.320007,,2013-03-24 18:43:00,
2013-03-24 14:52:00,30.0,21.0,-100.00,ENE,67,3.0,-999.0,69,-99.99,,,-99.99,292.320007,,2013-03-24 18:52:00,
2013-03-24 15:00:00,32.0,22.0,-100.00,ESE,112,4.0,-999.0,66,-99.99,,,-99.99,382.799988,,2013-03-24 19:00:00,
2013-03-24 15:43:00,32.0,22.0,-100.00,ESE,112,4.0,-999.0,66,-99.99,,,-99.99,382.799988,,2013-03-24 19:43:00,
2013-03-24 15:53:00,32.0,22.0,-100.00,ESE,112,4.0,-999.0,66,-99.99,,,-99.99,382.799988,,2013-03-24 19:53:00,
2013-03-24 16:00:00,31.0,22.0,-100.00,ENE,67,6.0,-999.0,69,-99.99,,,-99.99,428.040009,,2013-03-24 20:00:00,
2013-03-24 16:43:00,31.0,22.0,-100.00,ENE,67,6.0,-999.0,69,-99.99,,,-99.99,428.040009,,2013-03-24 20:43:00,
2013-03-24 16:53:00,31.0,22.0,-100.00,ENE,67,6.0,-999.0,69,-99.99,,,-99.99,428.040009,,2013-03-24 20:53:00,
2013-03-24 17:00:00,30.0,21.0,-100.00,ESE,112,6.0,-999.0,69,-99.99,,,-99.99,351.480011,,2013-03-24 21:00:00,
2013-03-24 17:43:00,30.0,21.0,-100.00,ESE,112,6.0,-999.0,69,-99.99,,,-99.99,351.480011,,2013-03-24 21:43:00,
2013-03-24 17:53:00,30.0,21.0,-100.00,ESE,112,6.0,-999.0,69,-99.99,,,-99.99,351.480011,,2013-03-24 21:53:00,
2013-03-24 18:00:00,28.0,21.0,-100.00,East,90,7.0,-999.0,73,-99.99,,,-99.99,200.679993,,2013-03-24 22:00:00,
2013-03-24 18:43:00,28.0,21.0,-100.00,East,90,7.0,-999.0,73,-99.99,,,-99.99,200.679993,,2013-03-24 22:43:00,
2013-03-24 18:53:00,28.0,21.0,-100.00,East,90,7.0,-999.0,73,-99.99,,,-99.99,200.679993,,2013-03-24 22:53:00,
2013-03-24 22:00:00,25.0,21.0,-100.00,SW,225,2.0,-999.0,85,-99.99,,,-99.99,0.000000,,2013-03-25 02:00:00,
2013-03-24 22:43:00,25.0,21.0,-100.00,SW,225,2.0,-999.0,85,-99.99,,,-99.99,0.000000,,2013-03-25 02:43:00,
2013-03-24 22:52:00,25.0,21.0,-100.00,SW,225,2.0,-999.0,85,-99.99,,,-99.99,0.000000,,2013-03-25 02:52:00,
2013-03-24 23:00:00,22.0,19.0,-100.00,West,270,0.0,-999.0,88,-99.99,,,-99.99,0.000000,,2013-03-25 03:00:00,
2013-03-24 23:43:00,22.0,19.0,-100.00,West,270,0.0,-999.0,88,-99.99,,,-99.99,0.000000,,2013-03-25 03:43:00,
2013-03-24 23:53:00,22.0,19.0,-100.00,West,270,0.0,-999.0,88,-99.99,,,-99.99,0.000000,,2013-03-25 03:53:00,